createdAt,value
2022-09-12T00:02:11.789Z,60.34
2022-09-12T00:04:38.147Z,59.99
2022-09-12T00:07:04.454Z,60.06
2022-09-12T00:09:30.825Z,60.02
2022-09-12T00:11:57.135Z,59.98
2022-09-12T00:14:23.455Z,60.10
2022-09-12T00:16:49.799Z,59.92
2022-09-12T00:19:16.174Z,59.87
2022-09-12T00:21:42.568Z,59.81
2022-09-12T00:24:09.245Z,60.05
2022-09-12T00:26:35.545Z,59.94
2022-09-12T00:29:01.900Z,59.81
2022-09-12T00:31:28.283Z,60.00
2022-09-12T00:33:55.371Z,60.10
2022-09-12T00:36:22.514Z,59.75
2022-09-12T00:38:48.918Z,60.13
2022-09-12T00:41:19.501Z,59.89
2022-09-12T00:43:46.728Z,59.77
2022-09-12T00:46:17.805Z,59.72
2022-09-12T00:48:46.038Z,59.69
2022-09-12T00:51:12.450Z,59.91
2022-09-12T00:53:39.153Z,59.76
2022-09-12T00:56:05.471Z,59.76
2022-09-12T00:58:32.855Z,59.92
2022-09-12T01:00:59.300Z,59.60
2022-09-12T01:03:25.668Z,59.74
2022-09-12T01:05:59.827Z,59.42
2022-09-12T01:08:26.133Z,59.71
2022-09-12T01:10:52.453Z,59.77
2022-09-12T01:13:18.794Z,59.51
2022-09-12T01:15:45.806Z,59.67
2022-09-12T01:18:14.887Z,59.64
2022-09-12T01:20:51.643Z,59.79
2022-09-12T01:23:23.985Z,59.52
2022-09-12T01:26:09.149Z,59.43
2022-09-12T01:28:58.888Z,59.73
2022-09-12T01:31:28.249Z,59.72
2022-09-12T01:34:10.337Z,59.29
2022-09-12T01:36:38.260Z,59.63
2022-09-12T01:39:16.452Z,59.65
2022-09-12T01:42:01.506Z,59.50
2022-09-12T01:44:34.781Z,59.29
2022-09-12T01:47:02.999Z,59.32
2022-09-12T01:49:33.105Z,59.52
2022-09-12T01:52:12.750Z,59.35
2022-09-12T01:54:40.871Z,59.25
2022-09-12T01:57:09.729Z,59.27
2022-09-12T01:59:37.077Z,59.48
2022-09-12T02:02:06.220Z,59.37
2022-09-12T02:04:41.234Z,59.29
2022-09-12T02:07:14.620Z,59.35
2022-09-12T02:09:42.977Z,59.39
2022-09-12T02:12:09.613Z,59.12
2022-09-12T02:14:40.458Z,59.42
2022-09-12T02:17:08.706Z,59.55
2022-09-12T02:19:36.608Z,59.10
2022-09-12T02:22:03.049Z,59.40
2022-09-12T02:24:33.332Z,59.09
2022-09-12T02:27:10.625Z,59.21
2022-09-12T02:29:36.933Z,59.39
2022-09-12T02:32:08.640Z,59.06
2022-09-12T02:34:42.389Z,59.43
2022-09-12T02:37:17.491Z,59.44
2022-09-12T02:39:45.544Z,59.23
2022-09-12T02:42:11.993Z,59.15
2022-09-12T02:44:38.307Z,59.11
2022-09-12T02:47:09.104Z,59.38
2022-09-12T02:49:35.629Z,59.14
2022-09-12T02:52:01.938Z,59.03
2022-09-12T02:54:28.263Z,59.16
2022-09-12T02:56:54.570Z,59.13
2022-09-12T02:59:21.196Z,58.92
2022-09-12T03:01:57.367Z,59.23
2022-09-12T03:04:37.526Z,58.93
2022-09-12T03:07:12.477Z,59.01
2022-09-12T03:09:42.609Z,59.02
2022-09-12T03:12:17.965Z,59.15
2022-09-12T03:14:47.418Z,59.07
2022-09-12T03:17:32.380Z,59.27
2022-09-12T03:20:03.620Z,58.95
2022-09-12T03:22:51.317Z,58.97
2022-09-12T03:25:18.769Z,59.15
2022-09-12T03:27:47.695Z,58.98
2022-09-12T03:30:14.093Z,58.82
2022-09-12T03:32:41.079Z,58.94
2022-09-12T03:35:07.563Z,58.93
2022-09-12T03:37:33.884Z,58.85
2022-09-12T03:40:00.985Z,58.95
2022-09-12T03:42:27.328Z,59.12
2022-09-12T03:44:53.641Z,58.74
2022-09-12T03:47:19.955Z,58.88
2022-09-12T03:49:46.697Z,58.84
2022-09-12T03:52:12.998Z,58.86
2022-09-12T03:54:39.713Z,58.71
2022-09-12T03:57:06.038Z,58.83
2022-09-12T03:59:32.521Z,58.88
2022-09-12T04:01:58.865Z,58.66
2022-09-12T04:04:25.214Z,58.19
2022-09-12T04:06:51.530Z,55.61
2022-09-12T04:09:17.852Z,55.95
2022-09-12T04:11:44.212Z,57.52
2022-09-12T04:14:10.543Z,57.29
2022-09-12T04:16:36.869Z,56.78
2022-09-12T04:19:03.239Z,57.10
2022-09-12T04:21:29.540Z,57.37
2022-09-12T04:23:55.861Z,57.42
2022-09-12T04:26:22.360Z,57.03
2022-09-12T04:28:48.682Z,57.49
2022-09-12T04:31:18.074Z,57.34
2022-09-12T04:33:44.684Z,57.43
2022-09-12T04:36:11.765Z,57.61
2022-09-12T04:38:38.411Z,57.80
2022-09-12T04:41:14.473Z,57.53
2022-09-12T04:43:40.801Z,57.60
2022-09-12T04:46:07.522Z,57.89
2022-09-12T04:48:33.897Z,57.78
2022-09-12T04:51:09.380Z,57.95
2022-09-12T04:53:36.919Z,58.47
2022-09-12T04:56:04.025Z,58.44
2022-09-12T04:58:30.932Z,58.53
2022-09-12T05:00:57.335Z,58.50
2022-09-12T05:03:23.665Z,58.40
2022-09-12T05:05:53.338Z,58.02
2022-09-12T05:08:22.614Z,58.44
2022-09-12T05:10:49.013Z,58.31
2022-09-12T05:13:15.320Z,58.15
2022-09-12T05:15:41.631Z,58.53
2022-09-12T05:18:07.954Z,58.54
2022-09-12T05:20:34.291Z,58.54
2022-09-12T05:23:01.682Z,58.13
2022-09-12T05:25:28.002Z,58.17
2022-09-12T05:27:54.319Z,58.34
2022-09-12T05:30:20.629Z,58.65
2022-09-12T05:32:46.941Z,58.91
2022-09-12T05:35:13.266Z,58.71
2022-09-12T05:37:40.081Z,59.21
2022-09-12T05:40:08.483Z,59.64
2022-09-12T05:42:34.877Z,60.23
2022-09-12T05:45:01.186Z,59.22
2022-09-12T05:47:27.517Z,58.79
2022-09-12T05:49:54.278Z,58.57
2022-09-12T05:52:20.646Z,58.02
2022-09-12T05:54:48.161Z,58.35
2022-09-12T05:57:14.469Z,57.97
2022-09-12T05:59:40.820Z,57.88
2022-09-12T06:02:08.233Z,57.98
2022-09-12T06:04:34.581Z,58.00
2022-09-12T06:07:01.057Z,57.95
2022-09-12T06:09:28.029Z,58.47
2022-09-12T06:11:54.395Z,58.45
2022-09-12T06:14:20.750Z,58.31
2022-09-12T06:16:47.548Z,57.98
2022-09-12T06:19:15.126Z,57.43
2022-09-12T06:21:41.487Z,57.36
2022-09-12T06:24:07.797Z,57.84
2022-09-12T06:26:34.115Z,57.54
2022-09-12T06:29:00.749Z,57.53
2022-09-12T06:31:28.762Z,57.06
2022-09-12T06:33:55.109Z,57.13
2022-09-12T06:36:22.452Z,57.06
2022-09-12T06:38:48.833Z,57.61
2022-09-12T06:41:15.162Z,57.58
2022-09-12T06:43:41.542Z,57.35
2022-09-12T06:46:08.315Z,56.91
2022-09-12T06:48:37.371Z,56.61
2022-09-12T06:51:09.167Z,56.61
2022-09-12T06:53:36.903Z,57.00
2022-09-12T06:56:09.570Z,57.15
2022-09-12T06:58:35.929Z,57.86
2022-09-12T07:01:06.244Z,56.23
2022-09-12T07:03:32.602Z,55.66
2022-09-12T07:06:08.773Z,55.21
2022-09-12T07:08:35.881Z,55.38
2022-09-12T07:11:08.248Z,55.37
2022-09-12T07:13:34.698Z,55.25
2022-09-12T07:16:04.190Z,55.14
2022-09-12T07:18:31.226Z,55.12
2022-09-12T07:20:59.682Z,55.35
2022-09-12T07:23:25.998Z,55.66
2022-09-12T07:25:53.158Z,55.76
2022-09-12T07:28:19.483Z,56.36
2022-09-12T07:30:45.835Z,56.67
2022-09-12T07:33:12.188Z,57.06
2022-09-12T07:35:38.510Z,56.96
2022-09-12T07:38:04.914Z,56.77
2022-09-12T07:40:31.241Z,56.72
2022-09-12T07:42:57.587Z,56.81
2022-09-12T07:45:23.923Z,56.83
2022-09-12T07:47:53.121Z,56.88
2022-09-12T07:50:19.459Z,57.08
2022-09-12T07:52:45.985Z,56.92
2022-09-12T07:55:12.346Z,57.17
2022-09-12T07:57:38.657Z,56.98
2022-09-12T08:00:05.593Z,56.96
2022-09-12T08:02:38.724Z,57.28
2022-09-12T08:05:05.222Z,57.09
2022-09-12T08:07:31.537Z,56.95
2022-09-12T08:09:57.858Z,57.02
2022-09-12T08:12:24.187Z,57.00
2022-09-12T08:14:50.520Z,56.39
2022-09-12T08:17:16.862Z,56.71
2022-09-12T08:19:43.635Z,56.39
2022-09-12T08:22:09.966Z,56.50
2022-09-12T08:24:36.296Z,56.35
2022-09-12T08:27:02.608Z,55.83
2022-09-12T08:29:28.991Z,55.48
2022-09-12T08:31:57.414Z,56.39
2022-09-12T08:34:24.837Z,56.41
2022-09-12T08:36:51.187Z,56.68
2022-09-12T08:39:17.511Z,55.84
2022-09-12T08:41:44.746Z,55.87
2022-09-12T08:44:19.806Z,56.29
2022-09-12T08:46:52.926Z,56.77
2022-09-12T08:49:23.388Z,57.01
2022-09-12T08:51:49.702Z,57.21
2022-09-12T08:54:20.029Z,57.09
2022-09-12T08:56:46.345Z,56.53
2022-09-12T08:59:13.643Z,57.08
2022-09-12T09:01:43.856Z,56.58
2022-09-12T09:04:10.145Z,56.08
2022-09-12T09:06:54.196Z,56.09
2022-09-12T09:09:24.921Z,56.28
2022-09-12T09:12:03.648Z,56.15
2022-09-12T09:14:49.072Z,56.30
2022-09-12T09:17:25.170Z,55.89
2022-09-12T09:19:53.750Z,55.88
2022-09-12T09:22:32.282Z,56.11
2022-09-12T09:25:02.571Z,56.24
2022-09-12T09:27:41.631Z,55.87
2022-09-12T09:30:12.455Z,56.64
2022-09-12T09:32:38.792Z,56.42
2022-09-12T09:35:36.522Z,56.38
2022-09-12T09:38:19.037Z,55.84
2022-09-12T09:40:51.410Z,56.28
2022-09-12T09:43:22.847Z,57.12
2022-09-12T09:45:49.639Z,56.80
2022-09-12T09:48:28.890Z,56.64
2022-09-12T09:50:56.789Z,56.46
2022-09-12T09:53:42.418Z,56.51
2022-09-12T09:56:26.392Z,56.28
2022-09-12T09:58:52.709Z,56.53
2022-09-12T10:01:19.121Z,56.32
2022-09-12T10:03:49.976Z,56.23
2022-09-12T10:06:23.010Z,56.13
2022-09-12T10:08:49.523Z,55.71
2022-09-12T10:11:15.767Z,56.60
2022-09-12T10:13:56.822Z,56.09
2022-09-12T10:16:24.188Z,56.26
2022-09-12T10:18:53.380Z,55.61
2022-09-12T10:21:25.410Z,55.50
2022-09-12T10:23:53.094Z,55.90
2022-09-12T10:26:19.418Z,55.89
2022-09-12T10:28:45.706Z,56.20
2022-09-12T10:31:16.071Z,56.42
2022-09-12T10:33:47.383Z,56.57
2022-09-12T10:36:14.262Z,56.27
2022-09-12T10:38:40.598Z,55.42
2022-09-12T10:41:07.383Z,56.53
2022-09-12T10:43:33.634Z,56.37
2022-09-12T10:46:11.692Z,56.28
2022-09-12T10:48:38.413Z,55.92
2022-09-12T10:51:05.023Z,55.45
2022-09-12T10:53:41.091Z,54.77
2022-09-12T10:56:26.147Z,55.25
2022-09-12T10:59:04.980Z,55.63
2022-09-12T11:01:35.026Z,55.22
2022-09-12T11:04:16.063Z,55.79
2022-09-12T11:06:49.075Z,55.88
2022-09-12T11:09:18.173Z,56.23
2022-09-12T11:11:57.650Z,55.82
2022-09-12T11:14:36.633Z,56.15
2022-09-12T11:17:05.997Z,55.34
2022-09-12T11:19:51.189Z,55.06
2022-09-12T11:22:36.891Z,54.98
2022-09-12T11:25:06.967Z,55.38
2022-09-12T11:27:35.855Z,55.47
2022-09-12T11:30:03.714Z,55.48
2022-09-12T11:32:45.353Z,55.61
2022-09-12T11:35:30.577Z,55.95
2022-09-12T11:38:08.834Z,55.81
2022-09-12T11:40:55.614Z,55.51
2022-09-12T11:43:41.523Z,55.56
2022-09-12T11:46:18.679Z,55.59
2022-09-12T11:48:49.239Z,52.87
2022-09-12T11:51:17.121Z,52.63
2022-09-12T11:53:43.434Z,52.34
2022-09-12T11:56:16.397Z,52.56
2022-09-12T11:58:42.886Z,53.69
2022-09-12T12:01:20.992Z,54.19
2022-09-12T12:03:47.569Z,54.07
2022-09-12T12:06:20.778Z,54.03
2022-09-12T12:08:47.330Z,54.47
2022-09-12T12:11:14.803Z,54.36
2022-09-12T12:13:44.738Z,53.90
2022-09-12T12:16:14.523Z,54.05
2022-09-12T12:18:40.899Z,54.18
2022-09-12T12:21:19.941Z,54.71
2022-09-12T12:24:05.205Z,54.68
2022-09-12T12:26:40.724Z,54.59
2022-09-12T12:29:27.273Z,54.61
2022-09-12T12:31:59.298Z,54.71
2022-09-12T12:34:35.138Z,54.66
2022-09-12T12:37:19.515Z,54.91
2022-09-12T12:39:46.142Z,54.93
2022-09-12T12:42:32.448Z,54.97
2022-09-12T12:45:03.590Z,53.93
2022-09-12T12:47:33.080Z,54.33
2022-09-12T12:50:01.159Z,54.01
2022-09-12T12:52:28.394Z,54.56
2022-09-12T12:54:55.552Z,54.18
2022-09-12T12:57:21.788Z,53.45
2022-09-12T12:59:49.022Z,53.88
2022-09-12T13:02:19.183Z,53.53
2022-09-12T13:04:45.551Z,53.59
2022-09-12T13:07:13.250Z,53.38
2022-09-12T13:09:45.970Z,53.57
2022-09-12T13:12:22.105Z,53.57
2022-09-12T13:14:48.416Z,52.22
2022-09-12T13:17:19.835Z,53.12
2022-09-12T13:19:46.158Z,53.14
2022-09-12T13:22:12.830Z,53.00
2022-09-12T13:24:44.427Z,52.77
2022-09-12T13:27:15.514Z,52.37
2022-09-12T13:29:42.361Z,51.68
2022-09-12T13:32:08.722Z,51.90
2022-09-12T13:34:35.310Z,51.56
2022-09-12T13:37:07.422Z,52.41
2022-09-12T13:39:48.116Z,52.32
2022-09-12T13:42:14.377Z,51.90
2022-09-12T13:44:44.627Z,52.43
2022-09-12T13:47:13.622Z,50.25
2022-09-12T13:49:39.987Z,51.13
2022-09-12T13:52:07.239Z,50.07
2022-09-12T13:54:34.021Z,50.19
2022-09-12T13:57:00.344Z,50.23
2022-09-12T13:59:26.699Z,50.68
2022-09-12T14:01:53.093Z,51.55
2022-09-12T14:04:39.191Z,51.60
2022-09-12T14:07:13.520Z,51.07
2022-09-12T14:09:40.911Z,50.78
2022-09-12T14:12:17.889Z,50.91
2022-09-12T14:14:46.135Z,50.44
2022-09-12T14:17:18.945Z,50.05
2022-09-12T14:19:48.216Z,50.85
2022-09-12T14:22:18.090Z,50.43
2022-09-12T14:24:49.559Z,49.43
2022-09-12T14:27:19.622Z,48.68
2022-09-12T14:29:46.837Z,49.57
2022-09-12T14:32:18.577Z,49.48
2022-09-12T14:35:03.447Z,49.91
2022-09-12T14:37:29.762Z,49.94
2022-09-12T14:39:56.771Z,49.90
2022-09-12T14:42:29.826Z,49.39
2022-09-12T14:45:00.194Z,49.31
2022-09-12T14:47:27.568Z,49.83
2022-09-12T14:49:53.873Z,50.05
2022-09-12T14:52:22.557Z,50.24
2022-09-12T14:54:58.742Z,49.99
2022-09-12T14:57:27.754Z,49.90
2022-09-12T14:59:54.677Z,49.78
2022-09-12T15:02:20.914Z,49.86
2022-09-12T15:04:48.113Z,50.80
2022-09-12T15:07:34.736Z,50.34
2022-09-12T15:10:02.237Z,50.14
2022-09-12T15:12:28.590Z,49.89
2022-09-12T15:15:01.203Z,50.18
2022-09-12T15:17:27.640Z,50.33
2022-09-12T15:19:54.172Z,50.84
2022-09-12T15:22:21.394Z,50.97
2022-09-12T15:24:47.761Z,50.74
2022-09-12T15:27:14.065Z,50.77
2022-09-12T15:29:40.397Z,51.18
2022-09-12T15:32:06.788Z,50.19
2022-09-12T15:34:33.144Z,50.63
2022-09-12T15:36:59.455Z,50.81
2022-09-12T15:39:25.779Z,51.45
2022-09-12T15:41:52.103Z,51.09
2022-09-12T15:44:20.086Z,50.89
2022-09-12T15:46:46.648Z,50.81
2022-09-12T15:49:13.073Z,50.64
2022-09-12T15:51:39.975Z,50.04
2022-09-12T15:54:06.369Z,50.66
2022-09-12T15:56:32.707Z,50.54
2022-09-12T15:59:00.088Z,51.36
2022-09-12T16:01:26.747Z,52.58
2022-09-12T16:03:53.205Z,52.92
2022-09-12T16:06:19.505Z,53.42
2022-09-12T16:08:45.876Z,53.34
2022-09-12T16:11:13.905Z,53.51
2022-09-12T16:13:40.204Z,53.83
2022-09-12T16:16:07.582Z,53.80
2022-09-12T16:18:33.937Z,54.13
2022-09-12T16:21:00.246Z,54.25
2022-09-12T16:23:26.577Z,54.05
2022-09-12T16:25:56.639Z,54.03
2022-09-12T16:28:22.969Z,54.16
2022-09-12T16:30:56.410Z,54.38
2022-09-12T16:33:22.943Z,54.23
2022-09-12T16:35:51.138Z,54.31
2022-09-12T16:38:17.838Z,54.52
2022-09-12T16:40:44.145Z,54.48
2022-09-12T16:43:10.463Z,54.53
2022-09-12T16:45:36.782Z,54.62
2022-09-12T16:48:03.169Z,54.54
2022-09-12T16:50:30.291Z,54.42
2022-09-12T16:52:56.612Z,54.65
2022-09-12T16:55:22.958Z,54.56
2022-09-12T16:57:49.421Z,54.48
2022-09-12T17:00:15.751Z,54.76
2022-09-12T17:02:42.088Z,54.83
2022-09-12T17:05:08.505Z,54.60
2022-09-12T17:07:35.154Z,54.77
2022-09-12T17:10:01.508Z,54.94
2022-09-12T17:12:27.818Z,55.14
2022-09-12T17:14:54.360Z,55.28
2022-09-12T17:17:20.676Z,55.50
2022-09-12T17:19:47.036Z,55.55
2022-09-12T17:22:13.341Z,55.79
2022-09-12T17:24:40.454Z,56.30
2022-09-12T17:27:06.789Z,57.50
2022-09-12T17:29:35.005Z,57.21
2022-09-12T17:32:01.570Z,57.66
2022-09-12T17:34:27.931Z,57.82
2022-09-12T17:36:54.271Z,57.84
2022-09-12T17:39:20.598Z,57.65
2022-09-12T17:41:47.086Z,57.50
2022-09-12T17:44:14.142Z,57.20
2022-09-12T17:46:40.545Z,57.07
2022-09-12T17:49:07.873Z,57.58
2022-09-12T17:51:34.207Z,57.18
2022-09-12T17:54:01.453Z,57.26
2022-09-12T17:56:29.094Z,57.13
2022-09-12T17:58:56.337Z,56.94
2022-09-12T18:01:41.387Z,55.33
2022-09-12T18:04:07.774Z,54.62
2022-09-12T18:06:34.094Z,54.97
2022-09-12T18:09:01.473Z,55.22
2022-09-12T18:11:27.923Z,55.71
2022-09-12T18:13:54.355Z,55.20
2022-09-12T18:16:20.738Z,55.56
2022-09-12T18:18:47.290Z,55.87
2022-09-12T18:21:13.626Z,55.75
2022-09-12T18:23:39.995Z,55.94
2022-09-12T18:26:07.153Z,56.55
2022-09-12T18:28:33.882Z,56.41
2022-09-12T18:31:00.247Z,56.67
2022-09-12T18:33:26.646Z,56.64
2022-09-12T18:35:52.963Z,56.23
2022-09-12T18:38:19.303Z,56.28
2022-09-12T18:40:45.627Z,55.90
2022-09-12T18:43:11.955Z,55.96
2022-09-12T18:45:38.281Z,55.79
2022-09-12T18:48:06.087Z,55.81
2022-09-12T18:50:32.701Z,55.55
2022-09-12T18:52:59.894Z,55.92
2022-09-12T18:55:26.419Z,55.75
2022-09-12T18:57:52.756Z,55.33
2022-09-12T19:00:19.065Z,55.52
2022-09-12T19:02:45.396Z,55.17
2022-09-12T19:05:12.770Z,55.02
2022-09-12T19:07:39.094Z,55.07
2022-09-12T19:10:15.171Z,54.98
2022-09-12T19:12:41.727Z,55.03
2022-09-12T19:15:09.735Z,54.84
2022-09-12T19:17:36.317Z,54.99
2022-09-12T19:20:02.638Z,55.01
2022-09-12T19:22:29.272Z,54.77
2022-09-12T19:24:55.609Z,54.99
2022-09-12T19:27:21.933Z,54.68
2022-09-12T19:29:48.550Z,55.10
2022-09-12T19:32:14.875Z,54.76
2022-09-12T19:34:41.745Z,54.72
2022-09-12T19:37:08.257Z,54.83
2022-09-12T19:39:34.640Z,55.05
2022-09-12T19:42:00.991Z,54.88
2022-09-12T19:44:29.017Z,54.94
2022-09-12T19:46:55.351Z,54.61
2022-09-12T19:49:21.682Z,54.83
2022-09-12T19:51:48.007Z,54.64
2022-09-12T19:54:14.313Z,54.70
2022-09-12T19:56:40.650Z,54.64
2022-09-12T19:59:06.990Z,54.63
2022-09-12T20:01:34.629Z,54.67
2022-09-12T20:04:01.007Z,54.71
2022-09-12T20:06:27.510Z,54.74
2022-09-12T20:08:53.975Z,54.49
2022-09-12T20:11:21.778Z,54.60
2022-09-12T20:13:48.092Z,54.62
2022-09-12T20:16:20.430Z,54.74
2022-09-12T20:18:49.372Z,54.34
2022-09-12T20:21:16.506Z,54.09
2022-09-12T20:23:42.982Z,54.30
2022-09-12T20:26:09.298Z,54.59
2022-09-12T20:28:35.988Z,54.95
2022-09-12T20:31:03.131Z,54.99
2022-09-12T20:33:29.557Z,55.14
2022-09-12T20:36:00.657Z,55.30
2022-09-12T20:38:26.982Z,55.25
2022-09-12T20:40:53.292Z,55.09
2022-09-12T20:43:19.612Z,55.03
2022-09-12T20:45:45.917Z,54.97
2022-09-12T20:48:12.242Z,54.59
2022-09-12T20:50:38.561Z,54.65
2022-09-12T20:53:05.228Z,54.68
2022-09-12T20:55:31.541Z,54.60
2022-09-12T20:57:57.862Z,54.33
2022-09-12T21:00:24.187Z,54.48
2022-09-12T21:02:51.065Z,54.60
2022-09-12T21:05:17.396Z,54.38
2022-09-12T21:07:43.719Z,54.38
2022-09-12T21:10:10.409Z,54.43
2022-09-12T21:12:37.301Z,54.54
2022-09-12T21:15:03.684Z,54.25
2022-09-12T21:17:30.008Z,54.31
2022-09-12T21:19:56.323Z,54.26
2022-09-12T21:22:22.646Z,53.95
2022-09-12T21:24:48.970Z,54.27
2022-09-12T21:27:15.290Z,54.34
2022-09-12T21:29:41.606Z,54.65
2022-09-12T21:32:12.138Z,54.48
2022-09-12T21:34:41.716Z,54.67
2022-09-12T21:37:08.037Z,54.58
2022-09-12T21:39:34.343Z,54.70
2022-09-12T21:42:01.031Z,54.55
2022-09-12T21:44:27.343Z,54.35
2022-09-12T21:46:53.747Z,54.25
2022-09-12T21:49:20.119Z,54.22
2022-09-12T21:51:46.468Z,54.50
2022-09-12T21:54:12.781Z,54.59
2022-09-12T21:56:39.157Z,54.60
2022-09-12T21:59:05.499Z,54.56
2022-09-12T22:01:31.875Z,54.51
2022-09-12T22:03:58.381Z,54.40
2022-09-12T22:06:24.727Z,54.46
2022-09-12T22:08:51.081Z,54.71
2022-09-12T22:11:19.730Z,54.48
2022-09-12T22:13:46.128Z,54.68
2022-09-12T22:16:12.606Z,54.76
2022-09-12T22:18:38.982Z,54.46
2022-09-12T22:21:06.163Z,54.65
2022-09-12T22:23:51.275Z,54.51
2022-09-12T22:26:17.942Z,54.68
2022-09-12T22:28:44.262Z,54.59
2022-09-12T22:31:11.481Z,54.49
2022-09-12T22:33:37.863Z,54.57
2022-09-12T22:36:04.176Z,54.70
2022-09-12T22:38:30.919Z,54.50
2022-09-12T22:40:59.179Z,54.80
2022-09-12T22:43:25.741Z,54.86
2022-09-12T22:45:52.253Z,54.70
2022-09-12T22:48:18.556Z,54.40
2022-09-12T22:50:45.686Z,54.81
2022-09-12T22:53:12.080Z,54.73
2022-09-12T22:55:38.416Z,54.63
2022-09-12T22:58:04.732Z,54.66
2022-09-12T23:00:31.096Z,54.73
2022-09-12T23:02:58.283Z,54.73
2022-09-12T23:05:24.714Z,54.82
2022-09-12T23:07:51.014Z,54.85
2022-09-12T23:10:17.368Z,54.85
2022-09-12T23:12:43.741Z,54.71
2022-09-12T23:15:10.225Z,54.86
2022-09-12T23:17:36.539Z,54.95
2022-09-12T23:20:03.518Z,54.84
2022-09-12T23:22:29.821Z,54.62
2022-09-12T23:24:56.125Z,54.48
2022-09-12T23:27:23.073Z,54.92
2022-09-12T23:29:52.379Z,54.63
2022-09-12T23:32:20.032Z,54.78
2022-09-12T23:34:47.072Z,55.02
2022-09-12T23:37:14.021Z,54.60
2022-09-12T23:39:40.409Z,54.90
2022-09-12T23:42:06.811Z,54.85
2022-09-12T23:44:33.146Z,54.84
2022-09-12T23:46:59.474Z,54.93
2022-09-12T23:49:25.807Z,54.80
2022-09-12T23:51:52.147Z,54.60
2022-09-12T23:54:18.477Z,54.85
2022-09-12T23:56:44.814Z,54.78
2022-09-12T23:59:11.179Z,54.51
